createdAt,value
2019-02-24T00:00:21.393Z,64.10
2019-02-24T00:02:50.464Z,64.00
2019-02-24T00:05:19.823Z,64.10
2019-02-24T00:07:48.825Z,63.70
2019-02-24T00:10:17.972Z,63.70
2019-02-24T00:12:46.970Z,64.20
2019-02-24T00:15:16.116Z,64.00
2019-02-24T00:17:45.270Z,63.70
2019-02-24T00:20:14.394Z,63.80
2019-02-24T00:22:43.556Z,63.70
2019-02-24T00:25:12.614Z,63.40
2019-02-24T00:27:41.963Z,63.90
2019-02-24T00:30:12.327Z,63.30
2019-02-24T00:32:41.522Z,63.40
2019-02-24T00:35:10.625Z,63.60
2019-02-24T00:37:39.610Z,63.50
2019-02-24T00:40:08.691Z,63.70
2019-02-24T00:42:37.726Z,63.50
2019-02-24T00:45:07.038Z,63.80
2019-02-24T00:47:36.094Z,63.80
2019-02-24T00:50:05.423Z,63.90
2019-02-24T00:52:34.450Z,63.90
2019-02-24T00:55:03.569Z,64.30
2019-02-24T00:57:32.785Z,63.90
2019-02-24T01:00:01.822Z,64.10
2019-02-24T01:02:30.943Z,64.20
2019-02-24T01:05:00.545Z,64.50
2019-02-24T01:07:29.635Z,64.50
2019-02-24T01:09:58.743Z,64.30
2019-02-24T01:12:28.104Z,64.80
2019-02-24T01:14:57.572Z,64.50
2019-02-24T01:17:27.798Z,64.50
2019-02-24T01:19:57.198Z,64.50
2019-02-24T01:22:26.239Z,64.40
2019-02-24T01:24:55.348Z,64.50
2019-02-24T01:27:24.504Z,64.50
2019-02-24T01:29:53.725Z,64.60
2019-02-24T01:32:23.065Z,64.70
2019-02-24T01:34:52.126Z,64.80
2019-02-24T01:37:21.121Z,64.70
2019-02-24T01:39:50.273Z,64.80
2019-02-24T01:42:19.422Z,65.10
2019-02-24T01:44:49.927Z,65.00
2019-02-24T01:47:18.840Z,64.90
2019-02-24T01:49:47.880Z,64.70
2019-02-24T01:52:16.859Z,65.00
2019-02-24T01:54:45.768Z,64.80
2019-02-24T01:57:15.671Z,64.30
2019-02-24T01:59:44.981Z,63.80
2019-02-24T02:02:14.467Z,63.80
2019-02-24T02:04:43.876Z,64.00
2019-02-24T02:07:12.952Z,63.90
2019-02-24T02:09:42.269Z,63.90
2019-02-24T02:12:11.273Z,64.20
2019-02-24T02:14:40.345Z,63.70
2019-02-24T02:17:09.542Z,63.40
2019-02-24T02:19:38.489Z,63.20
2019-02-24T02:22:07.461Z,63.20
2019-02-24T02:24:36.774Z,64.00
2019-02-24T02:27:07.790Z,63.20
2019-02-24T02:29:37.116Z,63.30
2019-02-24T02:32:06.214Z,63.20
2019-02-24T02:34:35.143Z,63.10
2019-02-24T02:37:04.272Z,63.10
2019-02-24T02:39:33.492Z,63.30
2019-02-24T02:42:02.597Z,63.00
2019-02-24T02:44:31.797Z,62.60
2019-02-24T02:47:01.053Z,62.80
2019-02-24T02:49:30.061Z,63.30
2019-02-24T02:51:59.132Z,62.90
2019-02-24T02:54:28.785Z,63.30
2019-02-24T02:56:58.163Z,63.10
2019-02-24T02:59:28.979Z,62.90
2019-02-24T03:01:58.404Z,62.70
2019-02-24T03:04:27.389Z,62.50
2019-02-24T03:07:24.650Z,62.60
2019-02-24T03:09:53.951Z,62.60
2019-02-24T03:12:22.958Z,62.70
2019-02-24T03:14:52.003Z,62.70
2019-02-24T03:17:20.980Z,62.60
2019-02-24T03:19:50.829Z,62.50
2019-02-24T03:22:19.869Z,62.40
2019-02-24T03:24:48.966Z,62.60
2019-02-24T03:27:18.003Z,62.80
2019-02-24T03:29:47.054Z,62.80
2019-02-24T03:32:16.378Z,62.90
2019-02-24T03:34:45.979Z,63.10
2019-02-24T03:37:15.052Z,62.80
2019-02-24T03:39:44.445Z,62.80
2019-02-24T03:42:13.916Z,62.80
2019-02-24T03:44:42.952Z,62.80
2019-02-24T03:47:12.031Z,62.60
2019-02-24T03:49:41.681Z,62.80
2019-02-24T03:52:10.709Z,62.80
2019-02-24T03:54:40.079Z,62.80
2019-02-24T03:57:09.439Z,62.70
2019-02-24T03:59:38.485Z,62.80
2019-02-24T04:02:07.856Z,62.40
2019-02-24T04:04:36.909Z,62.60
2019-02-24T04:07:06.289Z,62.60
2019-02-24T04:09:35.733Z,62.60
2019-02-24T04:12:04.673Z,62.60
2019-02-24T04:14:34.026Z,62.30
2019-02-24T04:17:03.727Z,63.10
2019-02-24T04:19:32.866Z,62.40
2019-02-24T04:22:02.310Z,62.60
2019-02-24T04:24:31.356Z,62.30
2019-02-24T04:27:00.426Z,62.20
2019-02-24T04:29:29.744Z,62.20
2019-02-24T04:31:59.830Z,61.80
2019-02-24T04:34:30.525Z,61.70
2019-02-24T04:36:59.587Z,61.20
2019-02-24T04:39:28.664Z,61.50
2019-02-24T04:41:57.831Z,61.80
2019-02-24T04:44:26.909Z,61.90
2019-02-24T04:46:56.043Z,62.10
2019-02-24T04:49:25.534Z,62.10
2019-02-24T04:51:54.606Z,61.90
2019-02-24T04:54:23.690Z,62.10
2019-02-24T04:56:52.825Z,62.10
2019-02-24T04:59:22.503Z,62.40
2019-02-24T05:01:52.162Z,62.20
2019-02-24T05:04:21.752Z,62.10
2019-02-24T05:06:51.622Z,61.90
2019-02-24T05:09:20.667Z,61.60
2019-02-24T05:11:49.642Z,61.40
2019-02-24T05:14:18.587Z,61.30
2019-02-24T05:16:47.752Z,61.30
2019-02-24T05:19:16.820Z,61.90
2019-02-24T05:21:46.192Z,61.20
2019-02-24T05:24:15.251Z,61.30
2019-02-24T05:26:44.567Z,61.50
2019-02-24T05:29:13.558Z,61.40
2019-02-24T05:31:42.628Z,61.40
2019-02-24T05:34:11.764Z,61.60
2019-02-24T05:36:40.718Z,61.80
2019-02-24T05:39:09.872Z,61.50
2019-02-24T05:41:39.570Z,61.60
2019-02-24T05:44:09.662Z,61.70
2019-02-24T05:46:41.451Z,61.70
2019-02-24T05:49:10.527Z,61.60
2019-02-24T05:51:39.519Z,62.40
2019-02-24T05:54:09.092Z,61.40
2019-02-24T05:56:38.058Z,61.50
2019-02-24T05:59:07.084Z,61.70
2019-02-24T06:01:36.087Z,61.20
2019-02-24T06:04:05.132Z,61.50
2019-02-24T06:06:35.631Z,61.30
2019-02-24T06:09:05.868Z,61.20
2019-02-24T06:11:35.424Z,61.00
2019-02-24T06:14:04.434Z,61.20
2019-02-24T06:16:33.775Z,60.80
2019-02-24T06:19:02.846Z,60.80
2019-02-24T06:21:31.937Z,61.00
2019-02-24T06:24:01.139Z,60.60
2019-02-24T06:26:30.576Z,60.50
2019-02-24T06:28:59.676Z,60.80
2019-02-24T06:31:28.790Z,60.70
2019-02-24T06:33:58.149Z,60.80
2019-02-24T06:36:27.246Z,60.40
2019-02-24T06:38:56.239Z,60.90
2019-02-24T06:41:25.265Z,60.10
2019-02-24T06:43:54.233Z,60.00
2019-02-24T06:46:23.415Z,60.20
2019-02-24T06:48:52.811Z,60.40
2019-02-24T06:51:22.455Z,60.40
2019-02-24T06:53:51.835Z,60.30
2019-02-24T06:56:20.968Z,60.00
2019-02-24T06:58:50.342Z,60.20
2019-02-24T07:01:19.608Z,60.20
2019-02-24T07:03:49.149Z,60.40
2019-02-24T07:06:18.267Z,59.40
2019-02-24T07:08:47.479Z,57.70
2019-02-24T07:11:16.553Z,57.20
2019-02-24T07:13:46.010Z,56.90
2019-02-24T07:16:15.448Z,56.30
2019-02-24T07:18:44.830Z,56.80
2019-02-24T07:21:14.025Z,56.50
2019-02-24T07:23:43.431Z,56.50
2019-02-24T07:26:12.880Z,55.70
2019-02-24T07:28:42.599Z,55.70
2019-02-24T07:31:11.754Z,55.30
2019-02-24T07:33:41.286Z,55.20
2019-02-24T07:36:10.789Z,54.90
2019-02-24T07:38:39.764Z,55.10
2019-02-24T07:41:08.974Z,54.20
2019-02-24T07:43:38.014Z,53.80
2019-02-24T07:46:07.087Z,53.70
2019-02-24T07:48:36.177Z,52.70
2019-02-24T07:51:05.212Z,51.70
2019-02-24T07:53:34.215Z,51.30
2019-02-24T07:56:03.270Z,51.30
2019-02-24T07:58:32.252Z,51.00
2019-02-24T08:01:01.311Z,50.90
2019-02-24T08:03:30.797Z,51.10
2019-02-24T08:06:00.327Z,51.70
2019-02-24T08:08:29.938Z,52.00
2019-02-24T08:10:59.188Z,51.90
2019-02-24T08:13:28.759Z,52.10
2019-02-24T08:15:58.026Z,52.20
2019-02-24T08:18:27.245Z,52.40
2019-02-24T08:20:56.600Z,52.50
2019-02-24T08:23:25.923Z,52.80
2019-02-24T08:25:55.592Z,53.00
2019-02-24T08:28:24.784Z,53.20
2019-02-24T08:30:54.101Z,53.70
2019-02-24T08:33:23.430Z,53.30
2019-02-24T08:35:53.061Z,53.20
2019-02-24T08:38:22.239Z,52.60
2019-02-24T08:40:51.559Z,52.00
2019-02-24T08:43:20.908Z,51.50
2019-02-24T08:45:50.278Z,51.60
2019-02-24T08:48:19.792Z,51.50
2019-02-24T08:50:51.535Z,51.50
2019-02-24T08:53:20.598Z,51.20
2019-02-24T08:55:51.053Z,51.60
2019-02-24T08:58:21.234Z,51.90
2019-02-24T09:00:51.403Z,51.90
2019-02-24T09:03:20.788Z,51.70
2019-02-24T09:05:49.891Z,51.70
2019-02-24T09:08:19.023Z,51.20
2019-02-24T09:10:48.730Z,50.80
2019-02-24T09:13:18.265Z,50.80
2019-02-24T09:15:47.288Z,50.40
2019-02-24T09:18:16.569Z,50.70
2019-02-24T09:20:45.882Z,50.30
2019-02-24T09:23:15.173Z,50.10
2019-02-24T09:25:44.491Z,49.50
2019-02-24T09:28:13.801Z,49.60
2019-02-24T09:30:43.486Z,49.00
2019-02-24T09:33:12.839Z,49.00
2019-02-24T09:35:42.473Z,48.00
2019-02-24T09:38:11.967Z,47.30
2019-02-24T09:40:41.145Z,47.50
2019-02-24T09:43:10.422Z,47.60
2019-02-24T09:45:39.797Z,47.00
2019-02-24T09:48:09.065Z,46.80
2019-02-24T09:50:38.632Z,46.00
2019-02-24T09:53:08.010Z,45.10
2019-02-24T09:55:37.414Z,45.00
2019-02-24T09:58:06.795Z,45.20
2019-02-24T10:00:36.764Z,45.10
2019-02-24T10:03:06.555Z,45.50
2019-02-24T10:05:35.835Z,45.20
2019-02-24T10:08:05.122Z,44.80
2019-02-24T10:10:34.349Z,44.60
2019-02-24T10:13:03.993Z,43.50
2019-02-24T10:15:33.151Z,43.10
2019-02-24T10:18:02.394Z,43.00
2019-02-24T10:20:31.619Z,43.20
2019-02-24T10:23:01.041Z,43.40
2019-02-24T10:25:30.301Z,42.70
2019-02-24T10:27:59.633Z,41.30
2019-02-24T10:30:28.844Z,41.80
2019-02-24T10:32:58.222Z,41.70
2019-02-24T10:35:27.795Z,41.50
2019-02-24T10:37:57.051Z,41.30
2019-02-24T10:40:26.295Z,40.10
2019-02-24T10:42:55.659Z,40.20
2019-02-24T10:45:24.909Z,40.20
2019-02-24T10:47:54.234Z,40.00
2019-02-24T10:50:23.535Z,39.50
2019-02-24T10:52:54.123Z,39.60
2019-02-24T10:55:23.707Z,39.30
2019-02-24T10:57:52.891Z,39.40
2019-02-24T11:00:23.120Z,39.30
2019-02-24T11:02:52.464Z,39.50
2019-02-24T11:05:21.978Z,39.00
2019-02-24T11:07:51.636Z,38.10
2019-02-24T11:10:21.189Z,37.50
2019-02-24T11:12:50.329Z,37.20
2019-02-24T11:15:19.574Z,37.50
2019-02-24T11:17:48.794Z,37.50
2019-02-24T11:20:17.886Z,36.70
2019-02-24T11:22:47.402Z,37.00
2019-02-24T11:25:17.027Z,36.50
2019-02-24T11:27:46.456Z,36.00
2019-02-24T11:30:15.736Z,34.70
2019-02-24T11:32:45.179Z,34.30
2019-02-24T11:35:14.476Z,34.40
2019-02-24T11:37:43.693Z,35.00
2019-02-24T11:40:15.265Z,34.20
2019-02-24T11:42:44.510Z,33.90
2019-02-24T11:45:13.911Z,33.80
2019-02-24T11:47:43.352Z,33.40
2019-02-24T11:50:12.893Z,34.00
2019-02-24T11:52:42.693Z,33.80
2019-02-24T11:55:12.132Z,33.00
2019-02-24T11:57:41.682Z,32.30
2019-02-24T12:00:11.288Z,32.20
2019-02-24T12:02:41.812Z,32.40
2019-02-24T12:05:12.115Z,31.80
2019-02-24T12:07:41.347Z,31.60
2019-02-24T12:10:10.718Z,31.30
2019-02-24T12:12:40.042Z,31.30
2019-02-24T12:15:10.062Z,31.40
2019-02-24T12:17:40.142Z,31.30
2019-02-24T12:20:10.681Z,31.30
2019-02-24T12:22:40.533Z,31.00
2019-02-24T12:25:09.792Z,30.80
2019-02-24T12:27:39.649Z,30.00
2019-02-24T12:30:10.148Z,29.60
2019-02-24T12:32:39.399Z,28.70
2019-02-24T12:35:08.999Z,29.10
2019-02-24T12:37:38.225Z,28.70
2019-02-24T12:40:08.302Z,28.70
2019-02-24T12:42:37.606Z,29.20
2019-02-24T12:45:18.868Z,29.10
2019-02-24T12:47:47.704Z,29.00
2019-02-24T12:50:17.095Z,29.10
2019-02-24T12:52:46.310Z,29.00
2019-02-24T12:55:15.556Z,28.50
2019-02-24T12:57:45.175Z,28.80
2019-02-24T13:00:17.558Z,28.40
2019-02-24T13:02:47.174Z,28.50
2019-02-24T13:05:17.524Z,28.50
2019-02-24T13:07:47.486Z,28.10
2019-02-24T13:10:16.812Z,28.50
2019-02-24T13:12:46.138Z,28.30
2019-02-24T13:15:15.463Z,28.50
2019-02-24T13:17:44.791Z,28.10
2019-02-24T13:20:14.822Z,28.40
2019-02-24T13:22:44.386Z,28.50
2019-02-24T13:25:13.789Z,28.50
2019-02-24T13:27:43.049Z,27.90
2019-02-24T13:30:12.914Z,27.60
2019-02-24T13:32:42.163Z,27.80
2019-02-24T13:35:12.234Z,27.40
2019-02-24T13:37:41.902Z,27.30
2019-02-24T13:40:11.575Z,27.00
2019-02-24T13:42:40.873Z,26.90
2019-02-24T13:45:12.132Z,26.70
2019-02-24T13:47:41.914Z,26.70
2019-02-24T13:50:11.216Z,27.00
2019-02-24T13:52:40.465Z,26.00
2019-02-24T13:55:10.909Z,26.00
2019-02-24T13:57:40.132Z,26.00
2019-02-24T14:00:12.759Z,25.60
2019-02-24T14:02:42.195Z,26.10
2019-02-24T14:05:11.388Z,26.60
2019-02-24T14:07:40.643Z,26.70
2019-02-24T14:10:11.175Z,27.40
2019-02-24T14:12:40.582Z,27.50
2019-02-24T14:15:10.316Z,27.60
2019-02-24T14:17:39.790Z,27.70
2019-02-24T14:20:10.506Z,27.40
2019-02-24T14:22:39.697Z,27.30
2019-02-24T14:25:09.058Z,26.50
2019-02-24T14:27:38.199Z,26.30
2019-02-24T14:30:09.049Z,26.00
2019-02-24T14:32:38.494Z,26.10
2019-02-24T14:35:09.638Z,26.30
2019-02-24T14:37:39.657Z,26.00
2019-02-24T14:40:09.313Z,26.10
2019-02-24T14:42:38.759Z,26.40
2019-02-24T14:45:11.008Z,26.20
2019-02-24T14:47:40.550Z,25.80
2019-02-24T14:50:10.222Z,25.70
2019-02-24T14:52:39.318Z,26.00
2019-02-24T14:55:08.701Z,26.40
2019-02-24T14:57:38.366Z,26.20
2019-02-24T15:00:09.398Z,26.20
2019-02-24T15:02:42.517Z,26.60
2019-02-24T15:05:10.708Z,26.60
2019-02-24T15:07:40.539Z,25.90
2019-02-24T15:10:13.601Z,25.30
2019-02-24T15:12:43.129Z,25.30
2019-02-24T15:15:14.778Z,25.20
2019-02-24T15:17:44.147Z,25.40
2019-02-24T15:20:18.387Z,25.80
2019-02-24T15:22:47.954Z,25.70
2019-02-24T15:25:17.449Z,25.50
2019-02-24T15:27:46.775Z,25.20
2019-02-24T15:30:25.370Z,25.50
2019-02-24T15:32:54.801Z,25.30
2019-02-24T15:35:24.062Z,25.60
2019-02-24T15:37:53.539Z,25.30
2019-02-24T15:40:22.963Z,25.00
2019-02-24T15:42:52.178Z,24.80
2019-02-24T15:45:21.342Z,24.70
2019-02-24T15:47:51.126Z,24.90
2019-02-24T15:50:20.604Z,24.90
2019-02-24T15:52:49.967Z,24.90
2019-02-24T15:55:19.136Z,25.00
2019-02-24T15:57:48.205Z,24.70
2019-02-24T16:00:17.667Z,24.60
2019-02-24T16:02:47.226Z,24.80
2019-02-24T16:05:16.612Z,24.90
2019-02-24T16:07:45.963Z,25.00
2019-02-24T16:10:16.125Z,24.90
2019-02-24T16:12:45.362Z,24.40
2019-02-24T16:15:15.436Z,23.80
2019-02-24T16:17:44.683Z,24.00
2019-02-24T16:20:16.361Z,24.10
2019-02-24T16:22:46.068Z,24.40
2019-02-24T16:25:15.395Z,24.30
2019-02-24T16:27:44.786Z,24.40
2019-02-24T16:30:14.401Z,24.80
2019-02-24T16:32:43.805Z,24.70
2019-02-24T16:35:14.436Z,24.60
2019-02-24T16:37:44.239Z,25.00
2019-02-24T16:40:15.718Z,24.90
2019-02-24T16:42:45.128Z,24.90
2019-02-24T16:45:14.812Z,25.10
2019-02-24T16:47:44.132Z,25.40
2019-02-24T16:50:14.937Z,25.10
2019-02-24T16:52:44.723Z,25.30
2019-02-24T16:55:14.762Z,25.30
2019-02-24T16:57:44.115Z,25.50
2019-02-24T17:00:15.608Z,25.60
2019-02-24T17:02:45.257Z,25.80
2019-02-24T17:05:15.007Z,26.00
2019-02-24T17:07:44.080Z,26.60
2019-02-24T17:10:14.983Z,27.50
2019-02-24T17:12:44.164Z,27.80
2019-02-24T17:15:13.264Z,29.00
2019-02-24T17:17:42.661Z,28.10
2019-02-24T17:20:13.464Z,28.60
2019-02-24T17:22:42.514Z,29.10
2019-02-24T17:25:11.735Z,29.40
2019-02-24T17:27:40.778Z,29.30
2019-02-24T17:30:10.817Z,29.30
2019-02-24T17:32:39.937Z,30.20
2019-02-24T17:35:09.653Z,30.60
2019-02-24T17:37:38.739Z,31.10
2019-02-24T17:40:09.493Z,30.60
2019-02-24T17:42:38.472Z,31.60
2019-02-24T17:45:09.681Z,31.80
2019-02-24T17:47:38.936Z,32.00
2019-02-24T17:50:16.486Z,32.00
2019-02-24T17:52:41.394Z,31.50
2019-02-24T17:55:11.391Z,31.90
2019-02-24T17:57:40.820Z,32.50
2019-02-24T18:00:13.875Z,32.00
2019-02-24T18:02:42.976Z,31.90
2019-02-24T18:05:12.418Z,32.50
2019-02-24T18:07:41.789Z,32.60
2019-02-24T18:10:11.244Z,32.90
2019-02-24T18:12:40.503Z,33.90
2019-02-24T18:15:10.710Z,34.70
2019-02-24T18:17:40.572Z,35.00
2019-02-24T18:20:10.546Z,35.50
2019-02-24T18:22:39.987Z,36.20
2019-02-24T18:25:09.933Z,36.70
2019-02-24T18:27:39.108Z,36.10
2019-02-24T18:30:12.063Z,36.60
2019-02-24T18:32:42.199Z,36.30
2019-02-24T18:35:11.537Z,36.30
2019-02-24T18:37:40.653Z,37.00
2019-02-24T18:40:10.946Z,36.20
2019-02-24T18:42:40.067Z,36.80
2019-02-24T18:45:10.377Z,36.80
2019-02-24T18:47:39.939Z,36.20
2019-02-24T18:50:09.975Z,35.70
2019-02-24T18:52:39.114Z,35.60
2019-02-24T18:55:08.494Z,35.40
2019-02-24T18:57:38.351Z,35.40
2019-02-24T19:00:09.287Z,35.10
2019-02-24T19:02:38.608Z,34.90
2019-02-24T19:05:08.532Z,34.80
2019-02-24T19:07:37.702Z,34.40
2019-02-24T19:10:08.344Z,34.00
2019-02-24T19:12:37.645Z,33.60
2019-02-24T19:15:08.557Z,33.80
2019-02-24T19:17:38.080Z,33.80
2019-02-24T19:20:07.977Z,33.80
2019-02-24T19:22:37.088Z,33.70
2019-02-24T19:25:06.414Z,33.80
2019-02-24T19:27:35.474Z,33.80
2019-02-24T19:30:05.230Z,33.80
2019-02-24T19:32:34.792Z,33.80
2019-02-24T19:35:04.392Z,33.60
2019-02-24T19:37:33.809Z,33.90
2019-02-24T19:40:02.892Z,34.10
2019-02-24T19:42:32.372Z,34.10
2019-02-24T19:45:02.021Z,34.30
2019-02-24T19:47:31.365Z,34.50
2019-02-24T19:50:00.518Z,34.60
2019-02-24T19:52:29.590Z,34.60
2019-02-24T19:54:58.673Z,34.90
2019-02-24T19:57:27.729Z,34.80
2019-02-24T19:59:57.001Z,34.90
2019-02-24T20:02:26.092Z,35.20
2019-02-24T20:04:55.787Z,35.20
2019-02-24T20:07:28.244Z,35.40
2019-02-24T20:09:58.190Z,35.70
2019-02-24T20:12:27.378Z,35.90
2019-02-24T20:14:57.919Z,36.00
2019-02-24T20:17:27.218Z,36.30
2019-02-24T20:19:57.137Z,36.30
2019-02-24T20:22:26.769Z,36.40
2019-02-24T20:24:56.275Z,36.50
2019-02-24T20:27:25.485Z,36.50
2019-02-24T20:29:54.731Z,36.20
2019-02-24T20:32:24.706Z,36.00
2019-02-24T20:34:53.906Z,36.10
2019-02-24T20:37:24.619Z,36.40
2019-02-24T20:39:54.074Z,36.40
2019-02-24T20:42:23.505Z,36.10
2019-02-24T20:44:52.910Z,35.80
2019-02-24T20:47:22.068Z,35.70
2019-02-24T20:49:51.274Z,35.70
2019-02-24T20:52:20.552Z,35.50
2019-02-24T20:54:49.716Z,35.40
2019-02-24T20:57:18.863Z,35.40
2019-02-24T20:59:48.960Z,35.40
2019-02-24T21:02:18.376Z,35.60
2019-02-24T21:04:47.866Z,35.70
2019-02-24T21:07:20.340Z,35.70
2019-02-24T21:09:49.684Z,35.80
2019-02-24T21:12:19.424Z,35.80
2019-02-24T21:14:49.140Z,36.00
2019-02-24T21:17:21.427Z,36.00
2019-02-24T21:19:50.710Z,36.40
2019-02-24T21:22:20.002Z,36.70
2019-02-24T21:24:49.051Z,37.00
2019-02-24T21:27:18.851Z,37.30
2019-02-24T21:29:51.923Z,37.90
2019-02-24T21:32:21.635Z,38.10
2019-02-24T21:34:51.199Z,38.30
2019-02-24T21:37:20.522Z,38.10
2019-02-24T21:39:50.142Z,38.00
2019-02-24T21:42:19.504Z,38.20
2019-02-24T21:44:49.027Z,38.20
2019-02-24T21:47:18.412Z,38.30
2019-02-24T21:49:50.381Z,38.50
2019-02-24T21:52:20.614Z,38.60
2019-02-24T21:54:50.319Z,38.90
2019-02-24T21:57:19.935Z,39.20
2019-02-24T21:59:49.197Z,39.30
2019-02-24T22:02:18.522Z,39.50
2019-02-24T22:04:48.946Z,39.90
2019-02-24T22:07:22.749Z,39.90
2019-02-24T22:09:53.057Z,39.60
2019-02-24T22:12:22.898Z,39.60
2019-02-24T22:14:53.628Z,39.60
2019-02-24T22:17:23.350Z,39.50
2019-02-24T22:19:52.665Z,39.70
2019-02-24T22:22:22.399Z,39.60
2019-02-24T22:24:51.831Z,39.70
2019-02-24T22:27:21.083Z,39.50
2019-02-24T22:29:51.045Z,39.50
2019-02-24T22:32:22.015Z,39.70
2019-02-24T22:34:51.819Z,40.10
2019-02-24T22:37:21.403Z,40.10
2019-02-24T22:39:57.055Z,40.40
2019-02-24T22:42:26.793Z,40.60
2019-02-24T22:44:56.860Z,40.40
2019-02-24T22:47:26.288Z,40.30
2019-02-24T22:49:55.771Z,40.20
2019-02-24T22:52:25.032Z,40.30
2019-02-24T22:55:02.908Z,40.40
2019-02-24T22:57:32.344Z,40.50
2019-02-24T23:00:03.161Z,40.40
2019-02-24T23:02:32.492Z,40.70
2019-02-24T23:05:02.506Z,41.00
2019-02-24T23:07:31.763Z,41.70
2019-02-24T23:10:04.762Z,42.00
2019-02-24T23:12:34.200Z,42.20
2019-02-24T23:15:03.515Z,42.60
2019-02-24T23:17:33.064Z,42.20
2019-02-24T23:20:03.810Z,42.40
2019-02-24T23:22:33.026Z,42.50
2019-02-24T23:25:02.582Z,42.60
2019-02-24T23:27:32.247Z,42.80
2019-02-24T23:30:01.348Z,43.20
2019-02-24T23:32:33.600Z,43.20
2019-02-24T23:35:02.961Z,43.40
2019-02-24T23:37:32.897Z,43.50
2019-02-24T23:40:02.331Z,43.60
2019-02-24T23:42:31.759Z,43.70
2019-02-24T23:45:09.744Z,43.80
2019-02-24T23:47:33.082Z,44.00
2019-02-24T23:50:02.150Z,44.20
2019-02-24T23:52:31.301Z,44.40
2019-02-24T23:55:01.274Z,44.80
2019-02-24T23:57:30.412Z,45.10
